Terminal Aerodrome Forecast
Issued by NWS Austin/San Antonio, TX

Home | Current Version | Previous Version | Text Only | Print | Product List | Glossary On
Versions: 1 2 3 4 5 6 7 8 9 10 11 12 13 14 15 16 17 18 19 20 21
000
FTUS44 KEWX 242331
TAFAUS
TAF
KAUS 242331Z 2500/2606 19012KT P6SM FEW028 SCT035 BKN200
     FM250200 19005KT P6SM OVC050
      TEMPO 2502/2504 4SM -TSRA OVC025CB
     FM250500 20007KT P6SM OVC015
     FM251400 24004KT P6SM SCT250
     FM252200 20006KT P6SM SCT250=

USA.gov is the U.S. government's official web portal to all federal, state and local government web resources and services.